Time;durP1;ratioP1;P1;durP2;ratioP2;P2;SDS_P1;SDS_P2;PMS_P1;PMS_P2;Temp;Humidity;BMP_temperature;BMP_pressure;BME280_temperature;BME280_humidity;BME280_pressure;Samples;Min_cycle;Max_cycle;Signal;HPM_P1;HPM_P2
2022/11/10 00:01:47;;;;;;;;;;;11.40;81.40;;;;;;5014191;28;19940;-79
2022/11/10 00:04:13;;;;;;;;;;;11.30;81.70;;;;;;5027690;28;20374;-80
2022/11/10 00:06:39;;;;;;;;;;;11.40;81.50;;;;;;5026301;28;19913;-79
2022/11/10 00:09:05;;;;;;;;;;;11.30;81.70;;;;;;5018613;28;20011;-79
2022/11/10 00:11:31;;;;;;;;;;;11.30;81.70;;;;;;5025208;28;20191;-80
2022/11/10 00:17:00;;;;;;;;;;;11.30;81.70;;;;;;5032534;28;19978;-79
2022/11/10 00:19:26;;;;;;;;;;;11.20;81.70;;;;;;5032853;28;19955;-79
2022/11/10 00:21:51;;;;;;;;;;;11.40;81.40;;;;;;5019020;28;19913;-80
2022/11/10 00:24:17;;;;;;;;;;;11.30;81.40;;;;;;5037742;28;20338;-78
2022/11/10 00:26:43;;;;;;;;;;;11.30;81.60;;;;;;5032823;28;20282;-79
2022/11/10 00:29:08;;;;;;;;;;;11.20;81.70;;;;;;5023997;28;20375;-79
2022/11/10 00:31:36;;;;;;;;;;;11.30;81.60;;;;;;5044759;28;19931;-78
2022/11/10 00:34:01;;;;;;;;;;;11.30;81.40;;;;;;5013313;28;19913;-79
2022/11/10 00:36:27;;;;;;;;;;;11.20;81.70;;;;;;5023514;28;19956;-78
2022/11/10 00:38:52;;;;;;;;;;;11.20;81.90;;;;;;5014258;28;20014;-80
2022/11/10 00:41:18;;;;;;;;;;;11.20;81.90;;;;;;5029940;28;19956;-79
2022/11/10 00:43:43;;;;;;;;;;;11.20;81.90;;;;;;5030719;28;19928;-81
2022/11/10 00:46:08;;;;;;;;;;;11.20;81.90;;;;;;5041263;28;19920;-78
2022/11/10 00:48:34;;;;;;;;;;;11.10;82.20;;;;;;5035110;28;20264;-80
2022/11/10 00:50:59;;;;;;;;;;;11.10;82.00;;;;;;5033187;28;20417;-79
2022/11/10 00:53:25;;;;;;;;;;;11.10;82.20;;;;;;5023660;28;19945;-80
2022/11/10 00:55:50;;;;;;;;;;;11.10;82.20;;;;;;5034563;28;19913;-80
2022/11/10 00:58:16;;;;;;;;;;;11.10;82.40;;;;;;5052894;28;19920;-78
2022/11/10 01:00:41;;;;;;;;;;;11.10;82.30;;;;;;5031785;28;19941;-78
2022/11/10 01:03:07;;;;;;;;;;;11.10;82.40;;;;;;5016142;28;20382;-81
2022/11/10 01:05:36;;;;;;;;;;;11.10;82.30;;;;;;5019789;28;20345;-81
2022/11/10 01:08:01;;;;;;;;;;;11.10;82.40;;;;;;5029889;28;19917;-81
2022/11/10 01:10:27;;;;;;;;;;;11.00;82.40;;;;;;5048532;28;20336;-78
2022/11/10 01:12:52;;;;;;;;;;;11.10;82.40;;;;;;5030470;28;20067;-80
2022/11/10 01:15:19;;;;;;;;;;;11.00;82.50;;;;;;5044509;28;19913;-81
2022/11/10 01:17:44;;;;;;;;;;;11.00;82.70;;;;;;5033173;28;19956;-79
2022/11/10 01:20:10;;;;;;;;;;;11.00;82.60;;;;;;5035979;28;19912;-80
2022/11/10 01:22:36;;;;;;;;;;;11.00;82.70;;;;;;5028269;28;20293;-80
2022/11/10 01:25:01;;;;;;;;;;;11.00;82.60;;;;;;5017487;28;19926;-79
2022/11/10 01:27:27;;;;;;;;;;;11.00;82.80;;;;;;5014666;28;19917;-80
2022/11/10 01:29:52;;;;;;;;;;;11.00;82.90;;;;;;5050186;28;19928;-78
2022/11/10 01:32:18;;;;;;;;;;;11.00;83.00;;;;;;5048498;28;20414;-81
2022/11/10 01:34:43;;;;;;;;;;;11.00;82.90;;;;;;5040687;28;19920;-80
2022/11/10 01:37:10;;;;;;;;;;;11.00;82.80;;;;;;5025081;28;19914;-80
2022/11/10 01:39:35;;;;;;;;;;;10.90;82.90;;;;;;5017620;28;19956;-80
2022/11/10 01:42:01;;;;;;;;;;;10.90;83.10;;;;;;5024774;28;20367;-80
2022/11/10 01:44:26;;;;;;;;;;;10.90;83.00;;;;;;5034563;28;19921;-81
2022/11/10 01:46:52;;;;;;;;;;;10.90;83.10;;;;;;5026445;28;19917;-80
2022/11/10 01:49:19;;;;;;;;;;;10.90;83.30;;;;;;5033154;28;19913;-79
2022/11/10 01:51:50;;;;;;;;;;;11.00;83.10;;;;;;5025937;28;20011;-80
2022/11/10 01:54:21;;;;;;;;;;;10.90;83.00;;;;;;5023548;28;19909;-79
2022/11/10 01:56:49;;;;;;;;;;;10.90;83.30;;;;;;5026820;28;19917;-80
2022/11/10 01:59:17;;;;;;;;;;;11.00;83.00;;;;;;5026383;28;19918;-80
2022/11/10 02:01:46;;;;;;;;;;;10.90;83.20;;;;;;5022675;28;19913;-80
2022/11/10 02:04:13;;;;;;;;;;;10.80;83.50;;;;;;5032690;28;19956;-80
2022/11/10 02:06:40;;;;;;;;;;;10.80;83.40;;;;;;5008458;28;19920;-78
2022/11/10 02:09:06;;;;;;;;;;;10.80;83.30;;;;;;5063382;23;19925;-83
2022/11/10 02:11:32;;;;;;;;;;;10.80;83.60;;;;;;5036571;28;19913;-84
2022/11/10 02:13:58;;;;;;;;;;;10.80;83.60;;;;;;5039170;28;20466;-84
2022/11/10 02:16:23;;;;;;;;;;;10.80;83.50;;;;;;5042800;28;19920;-84
2022/11/10 02:18:49;;;;;;;;;;;10.80;83.50;;;;;;5036035;28;19917;-84
2022/11/10 02:21:18;;;;;;;;;;;10.80;83.50;;;;;;5054313;28;19909;-84
2022/11/10 02:23:48;;;;;;;;;;;10.80;83.70;;;;;;5051473;28;19913;-83
2022/11/10 02:26:14;;;;;;;;;;;10.80;83.50;;;;;;5055056;28;19952;-85
2022/11/10 02:28:40;;;;;;;;;;;10.80;83.50;;;;;;5034565;28;19909;-84
2022/11/10 02:31:07;;;;;;;;;;;10.80;83.70;;;;;;5030527;28;19919;-83
2022/11/10 02:33:32;;;;;;;;;;;10.80;83.80;;;;;;5037415;28;20335;-84
2022/11/10 02:35:58;;;;;;;;;;;10.70;84.20;;;;;;5032445;28;19909;-84
2022/11/10 02:38:23;;;;;;;;;;;10.70;84.20;;;;;;5052431;28;19913;-83
2022/11/10 02:40:49;;;;;;;;;;;10.80;84.00;;;;;;5037389;28;19919;-83
2022/11/10 02:43:15;;;;;;;;;;;10.80;83.80;;;;;;5030536;28;20209;-83
2022/11/10 02:45:44;;;;;;;;;;;10.90;83.80;;;;;;5033639;28;19912;-83
2022/11/10 02:48:10;;;;;;;;;;;10.80;83.60;;;;;;5033637;28;19936;-82
2022/11/10 02:50:35;;;;;;;;;;;10.90;83.60;;;;;;5053993;28;19919;-82
2022/11/10 02:53:01;;;;;;;;;;;10.90;83.70;;;;;;5041795;28;19913;-82
2022/11/10 02:55:26;;;;;;;;;;;10.90;83.70;;;;;;5032333;28;19917;-82
2022/11/10 02:57:51;;;;;;;;;;;10.90;83.50;;;;;;5043811;28;20327;-82
2022/11/10 03:00:17;;;;;;;;;;;10.90;83.60;;;;;;5059971;28;19913;-82
2022/11/10 03:02:43;;;;;;;;;;;10.80;83.70;;;;;;5030066;28;20008;-82
2022/11/10 03:05:09;;;;;;;;;;;10.90;83.80;;;;;;5028624;28;19917;-82
2022/11/10 03:07:34;;;;;;;;;;;10.80;83.70;;;;;;5045795;28;19996;-82
2022/11/10 03:10:00;;;;;;;;;;;10.90;83.60;;;;;;5052266;28;20003;-82
2022/11/10 03:12:26;;;;;;;;;;;10.80;83.80;;;;;;5067760;28;19912;-82
2022/11/10 03:14:52;;;;;;;;;;;10.80;83.90;;;;;;5073736;28;19970;-82
2022/11/10 03:17:17;;;;;;;;;;;10.80;84.00;;;;;;5060766;28;19913;-82
2022/11/10 03:19:43;;;;;;;;;;;10.80;84.00;;;;;;5056682;28;19952;-82
2022/11/10 03:22:08;;;;;;;;;;;10.80;83.90;;;;;;5036845;28;20405;-82
2022/11/10 03:24:33;;;;;;;;;;;10.80;83.80;;;;;;5038268;28;19917;-82
2022/11/10 03:26:59;;;;;;;;;;;10.90;83.70;;;;;;5065956;28;19917;-82
2022/11/10 03:29:25;;;;;;;;;;;10.80;83.70;;;;;;5044215;28;19944;-82
2022/11/10 03:31:50;;;;;;;;;;;10.90;83.90;;;;;;5056694;28;19909;-82
2022/11/10 03:34:15;;;;;;;;;;;11.00;83.60;;;;;;5071760;28;19913;-82
2022/11/10 03:36:41;;;;;;;;;;;10.90;83.50;;;;;;5072347;28;19976;-82
2022/11/10 03:39:06;;;;;;;;;;;10.90;83.80;;;;;;5058028;28;19928;-82
2022/11/10 03:41:32;;;;;;;;;;;10.80;83.90;;;;;;5045106;28;19913;-83
2022/11/10 03:43:57;;;;;;;;;;;10.80;83.80;;;;;;5065594;28;19920;-83
2022/11/10 03:46:23;;;;;;;;;;;10.80;83.90;;;;;;5070979;28;19912;-82
2022/11/10 03:48:48;;;;;;;;;;;10.80;84.00;;;;;;5057572;28;19963;-82
2022/11/10 03:51:14;;;;;;;;;;;10.90;83.80;;;;;;5058635;28;19992;-82
2022/11/10 03:53:39;;;;;;;;;;;10.80;83.80;;;;;;5042193;28;19925;-82
2022/11/10 03:56:05;;;;;;;;;;;10.80;84.00;;;;;;5065870;28;19948;-83
2022/11/10 03:58:31;;;;;;;;;;;10.80;83.90;;;;;;5052316;28;19970;-83
2022/11/10 04:00:57;;;;;;;;;;;10.80;84.00;;;;;;5060567;28;19917;-83
2022/11/10 04:03:22;;;;;;;;;;;10.80;83.90;;;;;;5031900;28;19913;-83
2022/11/10 04:15:40;;;;;;;;;;;10.90;84.00;;;;;;5052623;28;20539;-84
2022/11/10 04:16:46;;;;;;;;;;;10.80;83.90;;;;;;5052551;28;19920;-84
2022/11/10 04:19:11;;;;;;;;;;;10.80;84.00;;;;;;5054715;28;19913;-84
2022/11/10 04:21:37;;;;;;;;;;;10.80;83.80;;;;;;5054401;28;19917;-84
2022/11/10 04:24:02;;;;;;;;;;;10.80;84.00;;;;;;5062807;28;19924;-83
2022/11/10 04:26:28;;;;;;;;;;;10.70;84.10;;;;;;5046046;28;19913;-82
2022/11/10 04:28:55;;;;;;;;;;;10.70;84.40;;;;;;5062339;28;19948;-83
2022/11/10 04:31:21;;;;;;;;;;;10.70;84.20;;;;;;5056825;28;19920;-82
2022/11/10 04:33:47;;;;;;;;;;;10.70;84.40;;;;;;5042251;28;19951;-83
2022/11/10 04:36:14;;;;;;;;;;;10.60;84.40;;;;;;5055379;28;19921;-83
2022/11/10 04:38:40;;;;;;;;;;;10.70;84.50;;;;;;5029376;28;20307;-84
2022/11/10 04:41:06;;;;;;;;;;;10.80;84.10;;;;;;5058287;28;19991;-83
2022/11/10 04:43:31;;;;;;;;;;;10.70;84.10;;;;;;5039301;28;20466;-83
2022/11/10 04:45:57;;;;;;;;;;;10.60;84.40;;;;;;5039445;28;19928;-83
2022/11/10 04:48:23;;;;;;;;;;;10.60;84.60;;;;;;5042036;28;19931;-83
2022/11/10 04:50:48;;;;;;;;;;;10.60;84.60;;;;;;5043144;28;19909;-83
2022/11/10 04:53:14;;;;;;;;;;;10.50;84.80;;;;;;5038986;28;19919;-83
2022/11/10 04:55:41;;;;;;;;;;;10.50;84.80;;;;;;5045888;28;19913;-82
2022/11/10 04:58:07;;;;;;;;;;;10.50;84.60;;;;;;5062359;28;19917;-82
2022/11/10 05:00:33;;;;;;;;;;;10.50;84.60;;;;;;5082931;28;19912;-82
2022/11/10 05:02:59;;;;;;;;;;;10.50;84.90;;;;;;5042314;28;19962;-83
2022/11/10 05:05:25;;;;;;;;;;;10.40;85.00;;;;;;5069359;28;19925;-82
2022/11/10 05:07:50;;;;;;;;;;;10.50;85.20;;;;;;5043054;28;19955;-83
2022/11/10 05:10:16;;;;;;;;;;;10.50;85.00;;;;;;5040707;28;19943;-82
2022/11/10 05:12:41;;;;;;;;;;;10.40;85.00;;;;;;5048397;28;19913;-82
2022/11/10 05:15:07;;;;;;;;;;;10.40;85.10;;;;;;5030771;28;19917;-82
2022/11/10 05:17:33;;;;;;;;;;;10.40;85.00;;;;;;5059788;28;20076;-82
2022/11/10 05:19:59;;;;;;;;;;;10.40;85.10;;;;;;5053630;28;20381;-83
2022/11/10 05:22:24;;;;;;;;;;;10.40;85.10;;;;;;5060055;28;19920;-82
2022/11/10 05:24:50;;;;;;;;;;;10.50;85.10;;;;;;5040458;28;19971;-83
2022/11/10 05:27:16;;;;;;;;;;;10.40;85.20;;;;;;5041615;28;19920;-83
2022/11/10 05:29:41;;;;;;;;;;;10.30;85.30;;;;;;5072104;28;20283;-83
2022/11/10 05:32:07;;;;;;;;;;;10.30;85.30;;;;;;5042721;28;19920;-83
2022/11/10 05:34:32;;;;;;;;;;;10.30;85.30;;;;;;5060322;28;20281;-83
2022/11/10 05:36:58;;;;;;;;;;;10.50;85.30;;;;;;5039126;28;19913;-83
2022/11/10 05:39:23;;;;;;;;;;;10.40;85.10;;;;;;5053761;28;19913;-83
2022/11/10 05:41:49;;;;;;;;;;;10.30;85.20;;;;;;5055314;28;20315;-82
2022/11/10 05:44:15;;;;;;;;;;;10.40;85.40;;;;;;5034005;28;19982;-82
2022/11/10 05:46:41;;;;;;;;;;;10.30;85.30;;;;;;5069217;28;19985;-82
2022/11/10 05:49:07;;;;;;;;;;;10.40;85.10;;;;;;5042938;28;20296;-82
2022/11/10 05:51:33;;;;;;;;;;;10.40;85.30;;;;;;5039423;28;20011;-84
2022/11/10 05:53:58;;;;;;;;;;;10.30;85.40;;;;;;5027794;28;19921;-83
2022/11/10 05:56:24;;;;;;;;;;;10.30;85.50;;;;;;5056280;28;19947;-83
2022/11/10 05:58:49;;;;;;;;;;;10.30;85.30;;;;;;5039612;28;19912;-83
2022/11/10 06:01:15;;;;;;;;;;;10.30;85.40;;;;;;5040574;28;19920;-83
2022/11/10 06:03:40;;;;;;;;;;;10.30;85.40;;;;;;5024395;28;19920;-81
2022/11/10 06:06:06;;;;;;;;;;;10.30;85.20;;;;;;5039680;28;19920;-83
2022/11/10 06:08:32;;;;;;;;;;;10.30;85.40;;;;;;5035620;28;19948;-83
2022/11/10 06:10:57;;;;;;;;;;;10.30;85.50;;;;;;5041229;28;20047;-82
2022/11/10 06:13:23;;;;;;;;;;;10.30;85.40;;;;;;5034421;28;19913;-82
2022/11/10 06:15:48;;;;;;;;;;;10.30;85.30;;;;;;5033998;28;19917;-81
2022/11/10 06:18:13;;;;;;;;;;;10.30;85.60;;;;;;5051332;28;19947;-82
2022/11/10 06:20:39;;;;;;;;;;;10.30;85.60;;;;;;5047488;28;19928;-82
2022/11/10 06:23:06;;;;;;;;;;;10.30;85.50;;;;;;5046101;28;19916;-82
2022/11/10 06:25:33;;;;;;;;;;;10.30;85.60;;;;;;5054412;28;19923;-82
2022/11/10 06:27:58;;;;;;;;;;;10.30;85.60;;;;;;5034064;28;20066;-82
2022/11/10 06:30:24;;;;;;;;;;;10.30;85.60;;;;;;5050123;28;19921;-83
2022/11/10 06:32:50;;;;;;;;;;;10.30;85.80;;;;;;5033931;28;19913;-83
2022/11/10 06:35:16;;;;;;;;;;;10.40;85.50;;;;;;5050940;28;19920;-81
2022/11/10 06:37:41;;;;;;;;;;;10.30;85.60;;;;;;5025929;28;19944;-82
2022/11/10 06:40:07;;;;;;;;;;;10.30;85.60;;;;;;5036214;28;19921;-82
2022/11/10 06:42:33;;;;;;;;;;;10.40;85.40;;;;;;5050518;28;19912;-82
2022/11/10 06:44:59;;;;;;;;;;;10.40;85.60;;;;;;5041846;28;20287;-82
2022/11/10 06:47:24;;;;;;;;;;;10.30;85.50;;;;;;5048162;28;20066;-84
2022/11/10 06:49:50;;;;;;;;;;;10.30;85.50;;;;;;5022457;28;19913;-83
2022/11/10 06:52:15;;;;;;;;;;;10.30;85.70;;;;;;5058683;28;19913;-83
2022/11/10 06:54:41;;;;;;;;;;;10.40;85.60;;;;;;5073617;28;19992;-83
2022/11/10 06:57:06;;;;;;;;;;;10.40;85.50;;;;;;5047518;28;19913;-83
2022/11/10 06:59:32;;;;;;;;;;;10.30;85.50;;;;;;5038596;28;19939;-82
2022/11/10 07:01:58;;;;;;;;;;;10.30;85.40;;;;;;5043269;28;19921;-83
2022/11/10 07:04:23;;;;;;;;;;;10.30;85.50;;;;;;5056882;28;19944;-84
2022/11/10 07:06:49;;;;;;;;;;;10.30;85.60;;;;;;5047744;28;19929;-83
2022/11/10 07:09:14;;;;;;;;;;;10.30;85.80;;;;;;5048027;28;20305;-83
2022/11/10 07:11:40;;;;;;;;;;;10.20;85.80;;;;;;5035143;28;19913;-83
2022/11/10 07:14:05;;;;;;;;;;;10.30;85.80;;;;;;5036097;28;19913;-83
2022/11/10 07:16:31;;;;;;;;;;;10.30;85.60;;;;;;5036163;28;19913;-83
2022/11/10 07:18:56;;;;;;;;;;;10.40;85.70;;;;;;5034762;28;19921;-83
2022/11/10 07:21:22;;;;;;;;;;;10.40;85.60;;;;;;5046453;28;20312;-84
2022/11/10 07:23:47;;;;;;;;;;;10.40;85.60;;;;;;5034520;28;19920;-84
2022/11/10 07:26:13;;;;;;;;;;;10.40;85.80;;;;;;5031774;28;19975;-84
2022/11/10 07:28:38;;;;;;;;;;;10.50;85.60;;;;;;5032793;28;19916;-84
2022/11/10 07:31:04;;;;;;;;;;;10.40;85.60;;;;;;5045623;28;19947;-84
2022/11/10 07:33:29;;;;;;;;;;;10.50;85.40;;;;;;5032082;28;19981;-83
2022/11/10 07:35:55;;;;;;;;;;;10.50;85.50;;;;;;5052131;28;20444;-83
2022/11/10 07:38:21;;;;;;;;;;;10.50;85.40;;;;;;5028106;28;20326;-83
2022/11/10 07:40:49;;;;;;;;;;;10.50;85.30;;;;;;5037801;28;19951;-83
2022/11/10 07:43:15;;;;;;;;;;;10.50;85.40;;;;;;5040547;28;19996;-84
2022/11/10 07:45:40;;;;;;;;;;;10.50;85.40;;;;;;5051207;28;19949;-86
2022/11/10 07:48:06;;;;;;;;;;;10.50;85.20;;;;;;5028778;28;20376;-83
2022/11/10 07:50:32;;;;;;;;;;;10.60;85.30;;;;;;5043889;28;20323;-80
2022/11/10 07:53:08;;;;;;;;;;;10.50;85.40;;;;;;5056452;28;19917;-81
2022/11/10 07:55:35;;;;;;;;;;;10.60;85.20;;;;;;5041767;28;19913;-82
2022/11/10 07:58:00;;;;;;;;;;;10.70;84.90;;;;;;5047152;28;19969;-82
2022/11/10 08:00:27;;;;;;;;;;;10.70;84.90;;;;;;5064808;28;19914;-81
2022/11/10 08:02:52;;;;;;;;;;;10.70;85.00;;;;;;5040732;28;19912;-81
2022/11/10 08:05:18;;;;;;;;;;;10.70;84.70;;;;;;5052647;28;20063;-82
2022/11/10 08:07:43;;;;;;;;;;;10.80;84.70;;;;;;5036916;28;19966;-81
2022/11/10 08:10:09;;;;;;;;;;;10.80;84.70;;;;;;5048581;23;20004;-80
2022/11/10 08:12:34;;;;;;;;;;;10.90;84.50;;;;;;5033942;28;19913;-81
2022/11/10 08:15:00;;;;;;;;;;;10.90;84.60;;;;;;5032567;28;19963;-81
2022/11/10 08:17:25;;;;;;;;;;;10.90;84.60;;;;;;5028577;28;19921;-81
2022/11/10 08:19:51;;;;;;;;;;;10.90;84.40;;;;;;5044609;28;19921;-83
2022/11/10 08:22:16;;;;;;;;;;;11.00;84.20;;;;;;5055440;28;19913;-82
2022/11/10 08:24:42;;;;;;;;;;;11.10;84.00;;;;;;5060556;28;19929;-80
2022/11/10 08:27:07;;;;;;;;;;;11.10;84.10;;;;;;5053751;28;19916;-81
2022/11/10 08:29:33;;;;;;;;;;;11.10;83.80;;;;;;5051855;28;20060;-82
2022/11/10 08:31:58;;;;;;;;;;;11.10;83.90;;;;;;5055972;28;19963;-82
2022/11/10 08:34:23;;;;;;;;;;;11.20;83.60;;;;;;5048571;28;19913;-80
2022/11/10 08:36:52;;;;;;;;;;;11.20;83.40;;;;;;5057938;28;20468;-79
2022/11/10 08:39:18;;;;;;;;;;;11.30;83.20;;;;;;5049612;28;19920;-79
2022/11/10 08:41:43;;;;;;;;;;;11.30;83.10;;;;;;5053132;28;19979;-80
2022/11/10 08:44:09;;;;;;;;;;;11.30;83.20;;;;;;5081286;28;20317;-80
2022/11/10 08:46:34;;;;;;;;;;;11.30;83.30;;;;;;5064347;28;19919;-80
2022/11/10 08:49:00;;;;;;;;;;;11.40;83.00;;;;;;5053285;28;19909;-80
2022/11/10 08:51:25;;;;;;;;;;;11.50;83.00;;;;;;5050370;28;19913;-80
2022/11/10 08:53:51;;;;;;;;;;;11.50;82.80;;;;;;5051023;28;19935;-80
2022/11/10 08:56:16;;;;;;;;;;;11.60;82.50;;;;;;5048682;28;20489;-82
2022/11/10 08:58:41;;;;;;;;;;;11.60;82.30;;;;;;5050494;28;19916;-80
2022/11/10 09:01:10;;;;;;;;;;;11.60;82.50;;;;;;5049557;28;19967;-81
2022/11/10 09:03:36;;;;;;;;;;;11.70;82.20;;;;;;5049687;28;19967;-80
2022/11/10 09:06:01;;;;;;;;;;;11.70;81.80;;;;;;5052658;28;19917;-80
2022/11/10 09:08:27;;;;;;;;;;;11.70;81.90;;;;;;5048635;28;19916;-80
2022/11/10 09:10:52;;;;;;;;;;;11.80;81.90;;;;;;5052783;28;19932;-80
2022/11/10 09:13:20;;;;;;;;;;;11.90;81.90;;;;;;5054551;28;20382;-80
2022/11/10 09:15:45;;;;;;;;;;;11.90;81.50;;;;;;5052376;28;20388;-81
2022/11/10 09:18:11;;;;;;;;;;;12.00;81.60;;;;;;5055841;28;19968;-80
2022/11/10 09:20:37;;;;;;;;;;;12.00;81.50;;;;;;5054570;28;19912;-81
2022/11/10 09:23:05;;;;;;;;;;;12.00;81.60;;;;;;5048838;28;19913;-80
2022/11/10 09:25:31;;;;;;;;;;;12.10;81.30;;;;;;5046849;28;19956;-81
2022/11/10 09:27:56;;;;;;;;;;;12.10;81.20;;;;;;5058286;28;19928;-80
2022/11/10 09:30:22;;;;;;;;;;;12.20;81.10;;;;;;5050045;28;19932;-82
2022/11/10 09:32:54;;;;;;;;;;;12.20;80.80;;;;;;5049991;28;19952;-81
2022/11/10 09:35:20;;;;;;;;;;;12.20;80.90;;;;;;5050921;28;19912;-82
2022/11/10 09:37:45;;;;;;;;;;;12.30;80.70;;;;;;5043935;28;19913;-82
2022/11/10 09:40:19;;;;;;;;;;;12.30;80.80;;;;;;5043978;28;20077;-83
2022/11/10 09:42:45;;;;;;;;;;;12.40;80.60;;;;;;5041045;28;19924;-81
2022/11/10 09:45:21;;;;;;;;;;;12.40;80.30;;;;;;5043756;28;20271;-81
2022/11/10 09:48:10;;;;;;;;;;;12.30;80.10;;;;;;5042407;28;19919;-81
2022/11/10 09:50:40;;;;;;;;;;;12.40;80.30;;;;;;5023355;28;19913;-81
2022/11/10 09:53:13;;;;;;;;;;;12.50;80.10;;;;;;5059392;28;19924;-82
2022/11/10 09:55:42;;;;;;;;;;;12.50;80.10;;;;;;5044962;28;19917;-79
2022/11/10 09:58:10;;;;;;;;;;;12.60;79.60;;;;;;5045398;28;19958;-78
2022/11/10 10:00:35;;;;;;;;;;;12.50;79.70;;;;;;5048214;28;19974;-80
2022/11/10 10:03:02;;;;;;;;;;;12.60;79.40;;;;;;5045492;28;19916;-78
2022/11/10 10:05:47;;;;;;;;;;;12.60;79.50;;;;;;5047594;28;20349;-80
2022/11/10 10:08:19;;;;;;;;;;;12.60;79.00;;;;;;5040377;28;19921;-79
2022/11/10 10:10:50;;;;;;;;;;;12.80;78.90;;;;;;5047735;28;19917;-78
2022/11/10 10:13:29;;;;;;;;;;;12.80;78.80;;;;;;5047536;28;19924;-80
2022/11/10 10:16:05;;;;;;;;;;;12.90;78.50;;;;;;5043589;28;19919;-79
2022/11/10 10:18:36;;;;;;;;;;;13.00;78.10;;;;;;5043840;28;19939;-79
2022/11/10 10:21:16;;;;;;;;;;;13.00;77.90;;;;;;5060491;28;19912;-77
2022/11/10 10:23:49;;;;;;;;;;;13.00;77.50;;;;;;5045845;28;19913;-78
2022/11/10 10:26:15;;;;;;;;;;;13.00;77.80;;;;;;5046071;28;19947;-78
2022/11/10 10:28:43;;;;;;;;;;;13.10;77.60;;;;;;5042810;28;20388;-79
2022/11/10 10:31:15;;;;;;;;;;;13.10;77.30;;;;;;5039892;28;19932;-79
2022/11/10 10:33:41;;;;;;;;;;;13.10;76.90;;;;;;5040512;28;19956;-79
2022/11/10 10:36:08;;;;;;;;;;;13.20;76.80;;;;;;5044976;28;19952;-79
2022/11/10 10:38:36;;;;;;;;;;;13.20;76.80;;;;;;5044823;28;19923;-78
2022/11/10 10:41:10;;;;;;;;;;;13.20;77.00;;;;;;5046900;28;20378;-77
2022/11/10 10:43:35;;;;;;;;;;;13.30;76.80;;;;;;5049988;28;19973;-80
2022/11/10 10:46:02;;;;;;;;;;;13.30;76.60;;;;;;5055515;28;19920;-78
2022/11/10 10:48:29;;;;;;;;;;;13.40;76.30;;;;;;5047523;28;20004;-79
2022/11/10 10:50:54;;;;;;;;;;;13.40;76.00;;;;;;5050129;28;19924;-78
2022/11/10 10:53:21;;;;;;;;;;;13.40;76.10;;;;;;5048730;28;19917;-78
2022/11/10 10:56:07;;;;;;;;;;;13.50;76.20;;;;;;5047609;28;19923;-78
2022/11/10 10:58:34;;;;;;;;;;;13.60;75.80;;;;;;5053733;28;19947;-76
2022/11/10 11:01:03;;;;;;;;;;;13.60;75.50;;;;;;5058345;28;19913;-79
2022/11/10 11:03:45;;;;;;;;;;;13.60;75.70;;;;;;5052548;28;19913;-77
2022/11/10 11:06:14;;;;;;;;;;;13.60;75.70;;;;;;5050704;28;20010;-77
2022/11/10 11:08:52;;;;;;;;;;;13.70;75.80;;;;;;5050504;28;19921;-78
2022/11/10 11:11:22;;;;;;;;;;;13.80;75.40;;;;;;5068556;28;19917;-78
2022/11/10 11:13:47;;;;;;;;;;;13.80;74.60;;;;;;5054329;28;20305;-79
2022/11/10 11:16:13;;;;;;;;;;;13.80;74.90;;;;;;5061869;28;19923;-77
2022/11/10 11:18:39;;;;;;;;;;;13.80;74.40;;;;;;5050302;28;19905;-79
2022/11/10 11:21:04;;;;;;;;;;;14.00;74.60;;;;;;5073959;28;19913;-78
2022/11/10 11:23:45;;;;;;;;;;;14.00;74.30;;;;;;5062783;28;19913;-79
2022/11/10 11:26:18;;;;;;;;;;;14.00;73.80;;;;;;5059239;28;21280;-79
2022/11/10 11:28:50;;;;;;;;;;;14.00;74.20;;;;;;5058138;28;20354;-78
2022/11/10 11:31:27;;;;;;;;;;;14.00;74.10;;;;;;5052009;28;20285;-79
2022/11/10 11:33:56;;;;;;;;;;;14.10;73.50;;;;;;5053394;28;19924;-77
2022/11/10 11:36:27;;;;;;;;;;;14.10;72.90;;;;;;5055785;28;20290;-79
2022/11/10 11:38:52;;;;;;;;;;;14.10;73.20;;;;;;5054759;28;19927;-78
2022/11/10 11:41:24;;;;;;;;;;;14.10;73.50;;;;;;5043752;28;20586;-78
2022/11/10 11:43:56;;;;;;;;;;;14.10;73.90;;;;;;5045666;28;19959;-78
2022/11/10 11:46:43;;;;;;;;;;;14.10;73.60;;;;;;5046704;28;19912;-79
2022/11/10 11:49:26;;;;;;;;;;;14.10;73.90;;;;;;5061866;28;19917;-78
2022/11/10 11:51:58;;;;;;;;;;;14.20;73.60;;;;;;5043540;28;19976;-78
2022/11/10 11:54:42;;;;;;;;;;;14.20;73.70;;;;;;5047599;28;20324;-78
2022/11/10 11:57:16;;;;;;;;;;;14.30;72.90;;;;;;5047969;28;19958;-80
2022/11/10 12:00:02;;;;;;;;;;;14.30;72.50;;;;;;5042606;28;19927;-80
2022/11/10 12:02:42;;;;;;;;;;;14.40;72.60;;;;;;5046929;28;20012;-78
2022/11/10 12:05:10;;;;;;;;;;;14.40;72.50;;;;;;5044185;28;20685;-79
2022/11/10 12:07:44;;;;;;;;;;;14.50;71.70;;;;;;5046001;28;19916;-77
2022/11/10 12:10:20;;;;;;;;;;;14.50;72.00;;;;;;5044267;28;19916;-78
2022/11/10 12:13:03;;;;;;;;;;;14.50;71.30;;;;;;5046672;28;19971;-80
2022/11/10 12:15:48;;;;;;;;;;;14.50;71.20;;;;;;5044224;28;20301;-78
2022/11/10 12:18:33;;;;;;;;;;;14.40;71.40;;;;;;5049941;28;20004;-80
2022/11/10 12:21:17;;;;;;;;;;;14.40;71.20;;;;;;5049703;28;19913;-79
2022/11/10 12:23:46;;;;;;;;;;;14.50;71.40;;;;;;5053526;28;20003;-80
2022/11/10 12:26:30;;;;;;;;;;;14.50;70.90;;;;;;5068047;28;19925;-80
2022/11/10 12:29:14;;;;;;;;;;;14.60;70.70;;;;;;5055304;28;19995;-78
2022/11/10 12:31:41;;;;;;;;;;;14.50;70.70;;;;;;5054628;28;19909;-80
2022/11/10 12:34:27;;;;;;;;;;;14.50;70.50;;;;;;5056558;28;19915;-80
2022/11/10 12:36:52;;;;;;;;;;;14.50;70.50;;;;;;5064110;28;19916;-78
2022/11/10 12:39:20;;;;;;;;;;;14.50;70.80;;;;;;5070640;28;19998;-78
2022/11/10 12:41:51;;;;;;;;;;;14.50;70.80;;;;;;5058741;28;19908;-78
2022/11/10 12:44:17;;;;;;;;;;;14.60;70.50;;;;;;5069816;28;19921;-78
2022/11/10 12:46:43;;;;;;;;;;;14.60;70.80;;;;;;5069401;28;19909;-79
2022/11/10 12:49:16;;;;;;;;;;;14.60;70.60;;;;;;5060274;28;19909;-79
2022/11/10 12:51:49;;;;;;;;;;;14.70;70.00;;;;;;5056554;28;20301;-80
2022/11/10 12:54:16;;;;;;;;;;;14.70;70.10;;;;;;5053399;28;19913;-78
2022/11/10 12:56:50;;;;;;;;;;;14.70;69.80;;;;;;5045506;28;19912;-82
2022/11/10 12:59:18;;;;;;;;;;;14.70;69.20;;;;;;5051381;28;19913;-79
2022/11/10 13:01:45;;;;;;;;;;;14.80;68.40;;;;;;5052513;28;19928;-79
2022/11/10 13:04:13;;;;;;;;;;;14.80;68.30;;;;;;5053158;28;19958;-82
2022/11/10 13:06:44;;;;;;;;;;;14.80;67.90;;;;;;5049823;28;19925;-80
2022/11/10 13:09:20;;;;;;;;;;;14.80;67.80;;;;;;5051853;28;19923;-81
2022/11/10 13:12:02;;;;;;;;;;;14.80;68.10;;;;;;5054316;28;20281;-80
2022/11/10 13:14:28;;;;;;;;;;;14.80;68.60;;;;;;5063954;28;19916;-81
2022/11/10 13:16:55;;;;;;;;;;;14.80;67.00;;;;;;5055944;28;19917;-80
2022/11/10 13:19:23;;;;;;;;;;;14.80;67.10;;;;;;5058672;28;19924;-80
2022/11/10 13:21:49;;;;;;;;;;;14.90;66.70;;;;;;5054164;28;19913;-81
2022/11/10 13:24:24;;;;;;;;;;;14.90;66.30;;;;;;5052108;28;19923;-80
2022/11/10 13:26:51;;;;;;;;;;;14.80;66.30;;;;;;5069496;28;19920;-79
2022/11/10 13:29:31;;;;;;;;;;;14.80;66.00;;;;;;5070558;28;19913;-82
2022/11/10 13:32:12;;;;;;;;;;;14.90;65.30;;;;;;5041757;28;19920;-79
2022/11/10 13:34:38;;;;;;;;;;;15.00;65.50;;;;;;5053153;28;19960;-80
2022/11/10 13:37:26;;;;;;;;;;;15.00;65.20;;;;;;5063113;28;19917;-80
2022/11/10 13:39:52;;;;;;;;;;;15.00;65.50;;;;;;5040324;28;19919;-80
2022/11/10 13:42:18;;;;;;;;;;;14.90;65.60;;;;;;5052832;28;19916;-80
2022/11/10 13:44:47;;;;;;;;;;;14.90;65.60;;;;;;5060706;28;20155;-80
2022/11/10 13:47:18;;;;;;;;;;;15.00;64.60;;;;;;5064248;28;19913;-80
2022/11/10 13:49:54;;;;;;;;;;;15.00;65.00;;;;;;5060971;28;19912;-81
2022/11/10 13:52:29;;;;;;;;;;;15.00;64.80;;;;;;5094919;28;19913;-78
2022/11/10 13:55:05;;;;;;;;;;;15.00;63.90;;;;;;5079994;28;19912;-78
2022/11/10 13:57:38;;;;;;;;;;;15.00;63.60;;;;;;5055670;28;19948;-79
2022/11/10 14:00:12;;;;;;;;;;;15.10;63.10;;;;;;5053874;28;19920;-79
2022/11/10 14:02:44;;;;;;;;;;;14.90;63.50;;;;;;5059464;28;19956;-79
2022/11/10 14:05:40;;;;;;;;;;;14.90;64.10;;;;;;5060367;28;19923;-80
2022/11/10 14:08:09;;;;;;;;;;;14.90;63.90;;;;;;5058612;28;19960;-80
2022/11/10 14:10:39;;;;;;;;;;;14.90;63.20;;;;;;5088096;23;19932;-81
2022/11/10 14:13:15;;;;;;;;;;;14.90;63.30;;;;;;5050275;28;19913;-81
2022/11/10 14:15:42;;;;;;;;;;;15.00;62.80;;;;;;5050026;28;20304;-80
2022/11/10 14:18:21;;;;;;;;;;;14.80;63.30;;;;;;5049668;28;19917;-81
2022/11/10 14:20:51;;;;;;;;;;;14.90;63.40;;;;;;5053323;28;19920;-80
2022/11/10 14:23:24;;;;;;;;;;;14.80;63.60;;;;;;5051244;28;19935;-80
2022/11/10 14:25:57;;;;;;;;;;;14.80;64.10;;;;;;5053117;28;20335;-81
2022/11/10 14:28:24;;;;;;;;;;;14.80;64.10;;;;;;5053953;28;19995;-81
2022/11/10 14:30:51;;;;;;;;;;;14.90;63.80;;;;;;5053430;28;19944;-81
2022/11/10 14:33:16;;;;;;;;;;;14.80;64.20;;;;;;5050409;28;19936;-80